This is the latest recevied weather packets stored in our database for station/object KI6PPU. If no packets are shown the sender has not sent any weather packets the latest 10 day(s).
| Time | Temp. | Humidity | Pressure | Rain* | Wind** | Luminosity | Snow |
|---|---|---|---|---|---|---|---|
| 1778113906 | 22.78° C | 64% | 1020.2 hPa | 0 mm | - | 356 W/m² | - |
| 1778113603 | 22.22° C | 64% | 1020.2 hPa | 0 mm | - | 261 W/m² | - |
| 1778113298 | 22.22° C | 65% | 1020.4 hPa | 0 mm | - | 388 W/m² | - |
| 1778112996 | 22.78° C | 64% | 1020.4 hPa | 0 mm | - | 382 W/m² | - |
| 1778112693 | 22.78° C | 64% | 1020.3 hPa | 0 mm | - | 207 W/m² | - |
| 1778112389 | 22.78° C | 63% | 1020.2 hPa | 0 mm | - | 314 W/m² | - |
| 1778112084 | 22.78° C | 64% | 1020.4 hPa | 0 mm | - | 420 W/m² | - |
| 1778111782 | 22.22° C | 67% | 1020.3 hPa | 0 mm | - | 379 W/m² | - |
| 1778111482 | 22.78° C | 64% | 1020.2 hPa | 0 mm | - | 456 W/m² | - |
| 1778111180 | 22.78° C | 64% | 1020.3 hPa | 0 mm | - | 456 W/m² | - |
| 1778110877 | 22.78° C | 65% | 1020.2 hPa | 0 mm | - | 369 W/m² | - |
| 1778110574 | 22.22° C | 65% | 1020.3 hPa | 0 mm | - | 495 W/m² | - |
| 1778110271 | 22.22° C | 65% | 1020.4 hPa | 0 mm | - | 513 W/m² | - |
| 1778109967 | 21.67° C | 70% | 1020.4 hPa | 0 mm | - | 542 W/m² | - |
| 1778109662 | 22.22° C | 67% | 1020.5 hPa | 0 mm | - | 530 W/m² | - |
| 1778109360 | 21.67° C | 67% | 1020.6 hPa | 0 mm | - | 569 W/m² | - |
| 1778109058 | 22.22° C | 67% | 1020.7 hPa | 0 mm | - | 537 W/m² | - |
| 1778108754 | 22.22° C | 66% | 1020.8 hPa | 0 mm | - | 275 W/m² | - |
| 1778108451 | 22.22° C | 67% | 1020.7 hPa | 0 mm | - | 602 W/m² | - |
| 1778108148 | 22.22° C | 64% | 1020.9 hPa | 0 mm | - | 596 W/m² | - |
| 1778107844 | 22.22° C | 67% | 1020.7 hPa | 0 mm | - | 658 W/m² | - |
| 1778107541 | 21.11° C | 69% | 1020.8 hPa | 0 mm | - | 579 W/m² | - |
| 1778107238 | 22.22° C | 65% | 1021 hPa | 0 mm | - | 623 W/m² | - |
| 1778106934 | 22.22° C | 68% | 1021.1 hPa | 0 mm | - | 416 W/m² | - |
| 1778106631 | 21.67° C | 70% | 1021.1 hPa | 0 mm | - | 546 W/m² | - |
* Rain latest hour (hover to see other rain measurements)
** Current wind speed in m/s (hover to see current wind gust speed)